sensor_id;sensor_type;location;lat;lon;timestamp;pressure;altitude;pressure_sealevel;temperature;humidity
17072;BME280;7731;50.720;6.912;2022-07-04T00:01:17;100506.72;;;15.17;87.41
17072;BME280;7731;50.720;6.912;2022-07-04T00:03:47;100506.63;;;14.91;88.07
17072;BME280;7731;50.720;6.912;2022-07-04T00:06:21;100505.38;;;14.97;87.92
17072;BME280;7731;50.720;6.912;2022-07-04T00:08:51;100516.56;;;15.12;87.06
17072;BME280;7731;50.720;6.912;2022-07-04T00:11:21;100500.88;;;15.00;87.37
17072;BME280;7731;50.720;6.912;2022-07-04T00:13:51;100499.25;;;14.85;88.53
17072;BME280;7731;50.720;6.912;2022-07-04T00:16:22;100494.31;;;14.52;89.08
17072;BME280;7731;50.720;6.912;2022-07-04T00:18:52;100500.41;;;14.51;89.87
17072;BME280;7731;50.720;6.912;2022-07-04T00:21:25;100503.38;;;14.44;90.11
17072;BME280;7731;50.720;6.912;2022-07-04T00:23:55;100504.84;;;14.49;90.51
17072;BME280;7731;50.720;6.912;2022-07-04T00:26:26;100503.53;;;14.41;90.80
17072;BME280;7731;50.720;6.912;2022-07-04T00:28:56;100500.34;;;14.67;89.56
17072;BME280;7731;50.720;6.912;2022-07-04T00:31:27;100498.47;;;14.83;87.72
17072;BME280;7731;50.720;6.912;2022-07-04T00:33:57;100489.91;;;14.82;87.60
17072;BME280;7731;50.720;6.912;2022-07-04T00:36:30;100485.44;;;14.85;86.91
17072;BME280;7731;50.720;6.912;2022-07-04T00:39:00;100474.38;;;14.68;88.01
17072;BME280;7731;50.720;6.912;2022-07-04T00:41:31;100490.56;;;14.72;87.45
17072;BME280;7731;50.720;6.912;2022-07-04T00:44:04;100488.31;;;14.80;87.71
17072;BME280;7731;50.720;6.912;2022-07-04T00:46:40;100477.88;;;14.81;87.03
17072;BME280;7731;50.720;6.912;2022-07-04T00:49:13;100478.81;;;14.80;87.29
17072;BME280;7731;50.720;6.912;2022-07-04T00:51:47;100473.47;;;14.84;88.26
17072;BME280;7731;50.720;6.912;2022-07-04T00:54:17;100481.31;;;14.82;86.83
17072;BME280;7731;50.720;6.912;2022-07-04T00:56:49;100476.06;;;14.69;87.61
17072;BME280;7731;50.720;6.912;2022-07-04T00:59:20;100472.97;;;14.48;89.86
17072;BME280;7731;50.720;6.912;2022-07-04T01:01:50;100472.91;;;14.35;90.55
17072;BME280;7731;50.720;6.912;2022-07-04T01:04:21;100477.31;;;14.19;91.04
17072;BME280;7731;50.720;6.912;2022-07-04T01:06:55;100472.50;;;14.13;91.23
17072;BME280;7731;50.720;6.912;2022-07-04T01:09:25;100481.41;;;13.92;92.92
17072;BME280;7731;50.720;6.912;2022-07-04T01:11:56;100477.81;;;13.81;94.04
17072;BME280;7731;50.720;6.912;2022-07-04T01:14:26;100481.81;;;13.70;94.55
17072;BME280;7731;50.720;6.912;2022-07-04T01:16:56;100484.50;;;13.69;94.82
17072;BME280;7731;50.720;6.912;2022-07-04T01:19:27;100482.44;;;13.90;94.86
17072;BME280;7731;50.720;6.912;2022-07-04T01:22:05;100488.28;;;14.08;92.57
17072;BME280;7731;50.720;6.912;2022-07-04T01:24:36;100480.88;;;14.02;93.65
17072;BME280;7731;50.720;6.912;2022-07-04T01:27:06;100486.41;;;13.96;92.61
17072;BME280;7731;50.720;6.912;2022-07-04T01:29:36;100488.53;;;14.03;93.42
17072;BME280;7731;50.720;6.912;2022-07-04T01:32:09;100488.03;;;14.27;92.63
17072;BME280;7731;50.720;6.912;2022-07-04T01:34:40;100493.16;;;14.13;91.27
17072;BME280;7731;50.720;6.912;2022-07-04T01:37:13;100486.81;;;13.73;93.61
17072;BME280;7731;50.720;6.912;2022-07-04T01:39:44;100485.16;;;13.72;95.00
17072;BME280;7731;50.720;6.912;2022-07-04T01:42:14;100494.41;;;13.91;94.37
17072;BME280;7731;50.720;6.912;2022-07-04T01:44:44;100492.44;;;13.80;93.92
17072;BME280;7731;50.720;6.912;2022-07-04T01:47:15;100496.06;;;13.78;93.85
17072;BME280;7731;50.720;6.912;2022-07-04T01:49:46;100494.16;;;13.65;94.76
17072;BME280;7731;50.720;6.912;2022-07-04T01:52:19;100501.19;;;13.47;95.59
17072;BME280;7731;50.720;6.912;2022-07-04T01:54:49;100496.03;;;13.47;96.59
17072;BME280;7731;50.720;6.912;2022-07-04T01:57:19;100500.84;;;13.37;96.97
17072;BME280;7731;50.720;6.912;2022-07-04T01:59:50;100497.16;;;13.73;95.37
17072;BME280;7731;50.720;6.912;2022-07-04T02:02:33;100495.31;;;13.75;95.00
17072;BME280;7731;50.720;6.912;2022-07-04T02:05:04;100499.06;;;14.00;92.84
17072;BME280;7731;50.720;6.912;2022-07-04T02:07:37;100501.41;;;13.74;94.00
17072;BME280;7731;50.720;6.912;2022-07-04T02:10:09;100513.34;;;13.61;95.61
17072;BME280;7731;50.720;6.912;2022-07-04T02:12:39;100515.44;;;13.38;96.81
17072;BME280;7731;50.720;6.912;2022-07-04T02:15:23;100517.84;;;13.42;97.01
17072;BME280;7731;50.720;6.912;2022-07-04T02:17:53;100517.91;;;13.56;96.41
17072;BME280;7731;50.720;6.912;2022-07-04T02:20:25;100515.44;;;13.85;92.98
17072;BME280;7731;50.720;6.912;2022-07-04T02:22:58;100525.13;;;13.65;93.86
17072;BME280;7731;50.720;6.912;2022-07-04T02:25:29;100522.28;;;13.39;95.97
17072;BME280;7731;50.720;6.912;2022-07-04T02:27:59;100530.13;;;13.20;97.75
17072;BME280;7731;50.720;6.912;2022-07-04T02:30:30;100529.25;;;13.37;97.02
17072;BME280;7731;50.720;6.912;2022-07-04T02:33:00;100533.16;;;13.45;96.67
17072;BME280;7731;50.720;6.912;2022-07-04T02:35:30;100525.41;;;13.45;96.48
17072;BME280;7731;50.720;6.912;2022-07-04T02:38:03;100539.31;;;13.26;98.37
17072;BME280;7731;50.720;6.912;2022-07-04T02:40:34;100533.91;;;13.15;98.77
17072;BME280;7731;50.720;6.912;2022-07-04T02:43:04;100533.00;;;13.48;98.11
17072;BME280;7731;50.720;6.912;2022-07-04T02:45:34;100531.63;;;13.72;94.86
17072;BME280;7731;50.720;6.912;2022-07-04T02:48:05;100534.28;;;13.71;93.76
17072;BME280;7731;50.720;6.912;2022-07-04T02:50:36;100539.97;;;13.14;97.64
17072;BME280;7731;50.720;6.912;2022-07-04T02:53:09;100538.03;;;13.01;98.55
17072;BME280;7731;50.720;6.912;2022-07-04T02:55:39;100542.44;;;13.31;96.89
17072;BME280;7731;50.720;6.912;2022-07-04T02:58:09;100547.31;;;13.37;98.18
17072;BME280;7731;50.720;6.912;2022-07-04T03:00:40;100555.44;;;13.30;95.74
17072;BME280;7731;50.720;6.912;2022-07-04T03:03:10;100553.44;;;13.19;97.03
17072;BME280;7731;50.720;6.912;2022-07-04T03:05:41;100554.50;;;12.99;98.74
17072;BME280;7731;50.720;6.912;2022-07-04T03:08:39;100558.56;;;12.87;99.93
17072;BME280;7731;50.720;6.912;2022-07-04T03:11:09;100555.16;;;13.52;96.88
17072;BME280;7731;50.720;6.912;2022-07-04T03:13:41;100555.81;;;13.71;92.61
17072;BME280;7731;50.720;6.912;2022-07-04T03:16:11;100565.44;;;13.20;95.33
17072;BME280;7731;50.720;6.912;2022-07-04T03:18:42;100568.91;;;13.03;96.59
17072;BME280;7731;50.720;6.912;2022-07-04T03:21:12;100572.06;;;12.92;96.71
17072;BME280;7731;50.720;6.912;2022-07-04T03:23:45;100569.88;;;13.34;93.61
17072;BME280;7731;50.720;6.912;2022-07-04T03:26:25;100566.59;;;13.14;95.46
17072;BME280;7731;50.720;6.912;2022-07-04T03:28:57;100568.13;;;12.85;95.75
17072;BME280;7731;50.720;6.912;2022-07-04T03:31:29;100571.88;;;12.95;95.60
17072;BME280;7731;50.720;6.912;2022-07-04T03:33:59;100580.00;;;12.72;97.08
17072;BME280;7731;50.720;6.912;2022-07-04T03:36:30;100579.53;;;12.81;96.94
17072;BME280;7731;50.720;6.912;2022-07-04T03:39:03;100570.94;;;12.80;96.89
17072;BME280;7731;50.720;6.912;2022-07-04T03:41:33;100577.06;;;12.95;94.78
17072;BME280;7731;50.720;6.912;2022-07-04T03:44:04;100577.38;;;12.89;96.45
17072;BME280;7731;50.720;6.912;2022-07-04T03:46:35;100581.88;;;12.85;96.76
17072;BME280;7731;50.720;6.912;2022-07-04T03:49:06;100576.00;;;12.82;97.13
17072;BME280;7731;50.720;6.912;2022-07-04T03:51:37;100580.53;;;12.94;95.87
17072;BME280;7731;50.720;6.912;2022-07-04T03:54:10;100580.69;;;12.91;96.02
17072;BME280;7731;50.720;6.912;2022-07-04T03:56:44;100583.41;;;12.72;96.73
17072;BME280;7731;50.720;6.912;2022-07-04T03:59:14;100585.78;;;12.93;95.93
17072;BME280;7731;50.720;6.912;2022-07-04T04:01:45;100583.34;;;12.90;96.38
17072;BME280;7731;50.720;6.912;2022-07-04T04:04:16;100585.03;;;13.07;95.19
17072;BME280;7731;50.720;6.912;2022-07-04T04:06:58;100587.78;;;13.03;95.07
17072;BME280;7731;50.720;6.912;2022-07-04T04:09:31;100580.94;;;12.86;96.16
17072;BME280;7731;50.720;6.912;2022-07-04T04:12:02;100582.19;;;12.79;96.08
17072;BME280;7731;50.720;6.912;2022-07-04T04:14:32;100583.94;;;12.61;97.06
17072;BME280;7731;50.720;6.912;2022-07-04T04:17:03;100574.56;;;12.43;97.49
17072;BME280;7731;50.720;6.912;2022-07-04T04:19:34;100584.09;;;12.58;97.93
17072;BME280;7731;50.720;6.912;2022-07-04T04:22:04;100577.94;;;12.61;97.38
17072;BME280;7731;50.720;6.912;2022-07-04T04:24:37;100574.38;;;12.81;96.71
17072;BME280;7731;50.720;6.912;2022-07-04T04:27:08;100582.22;;;12.95;96.79
17072;BME280;7731;50.720;6.912;2022-07-04T04:29:39;100577.72;;;12.99;95.47
17072;BME280;7731;50.720;6.912;2022-07-04T04:32:09;100576.88;;;13.48;94.64
17072;BME280;7731;50.720;6.912;2022-07-04T04:34:39;100583.38;;;13.55;90.43
17072;BME280;7731;50.720;6.912;2022-07-04T04:37:10;100582.78;;;13.34;92.80
17072;BME280;7731;50.720;6.912;2022-07-04T04:39:43;100586.28;;;13.49;92.26
17072;BME280;7731;50.720;6.912;2022-07-04T04:42:13;100588.06;;;13.15;92.26
17072;BME280;7731;50.720;6.912;2022-07-04T04:44:44;100586.31;;;12.99;94.73
17072;BME280;7731;50.720;6.912;2022-07-04T04:47:14;100589.53;;;12.87;95.75
17072;BME280;7731;50.720;6.912;2022-07-04T04:49:45;100588.25;;;13.12;93.94
17072;BME280;7731;50.720;6.912;2022-07-04T04:52:15;100584.72;;;13.13;93.75
17072;BME280;7731;50.720;6.912;2022-07-04T04:55:04;100585.59;;;13.29;93.68
17072;BME280;7731;50.720;6.912;2022-07-04T04:57:35;100591.94;;;13.39;93.97
17072;BME280;7731;50.720;6.912;2022-07-04T05:00:07;100585.13;;;13.38;93.12
17072;BME280;7731;50.720;6.912;2022-07-04T05:02:38;100587.41;;;13.27;93.72
17072;BME280;7731;50.720;6.912;2022-07-04T05:05:08;100599.19;;;13.49;92.80
17072;BME280;7731;50.720;6.912;2022-07-04T05:07:39;100591.47;;;13.49;92.42
17072;BME280;7731;50.720;6.912;2022-07-04T05:10:12;100584.94;;;13.57;91.94
17072;BME280;7731;50.720;6.912;2022-07-04T05:12:43;100583.25;;;13.72;91.58
17072;BME280;7731;50.720;6.912;2022-07-04T05:15:13;100577.41;;;13.85;90.83
17072;BME280;7731;50.720;6.912;2022-07-04T05:17:44;100588.16;;;14.68;87.29
17072;BME280;7731;50.720;6.912;2022-07-04T05:20:14;100576.88;;;16.87;79.66
17072;BME280;7731;50.720;6.912;2022-07-04T05:22:45;100569.72;;;18.36;68.60
17072;BME280;7731;50.720;6.912;2022-07-04T05:25:17;100570.94;;;19.34;63.36
17072;BME280;7731;50.720;6.912;2022-07-04T05:27:48;100569.16;;;21.73;56.17
17072;BME280;7731;50.720;6.912;2022-07-04T05:30:18;100569.06;;;21.14;55.92
17072;BME280;7731;50.720;6.912;2022-07-04T05:32:49;100569.19;;;21.03;58.23
17072;BME280;7731;50.720;6.912;2022-07-04T05:35:19;100573.13;;;20.87;56.55
17072;BME280;7731;50.720;6.912;2022-07-04T05:37:49;100563.38;;;22.65;50.60
17072;BME280;7731;50.720;6.912;2022-07-04T05:40:22;100554.84;;;23.19;51.21
17072;BME280;7731;50.720;6.912;2022-07-04T05:42:53;100565.28;;;21.57;54.30
17072;BME280;7731;50.720;6.912;2022-07-04T05:45:24;100555.97;;;22.51;50.85
17072;BME280;7731;50.720;6.912;2022-07-04T05:47:54;100555.22;;;24.49;44.74
17072;BME280;7731;50.720;6.912;2022-07-04T05:50:25;100553.00;;;24.10;46.40
17072;BME280;7731;50.720;6.912;2022-07-04T05:52:59;100561.41;;;24.13;47.51
17072;BME280;7731;50.720;6.912;2022-07-04T05:55:32;100567.16;;;22.43;51.42
17072;BME280;7731;50.720;6.912;2022-07-04T05:58:02;100559.75;;;24.65;45.79
17072;BME280;7731;50.720;6.912;2022-07-04T06:00:33;100574.78;;;23.84;48.35
17072;BME280;7731;50.720;6.912;2022-07-04T06:03:03;100579.09;;;22.93;51.07
17072;BME280;7731;50.720;6.912;2022-07-04T06:05:34;100569.91;;;23.71;48.71
17072;BME280;7731;50.720;6.912;2022-07-04T06:08:04;100562.84;;;24.07;47.97
17072;BME280;7731;50.720;6.912;2022-07-04T06:10:37;100560.84;;;26.13;41.37
17072;BME280;7731;50.720;6.912;2022-07-04T06:13:08;100574.38;;;24.15;46.06
17072;BME280;7731;50.720;6.912;2022-07-04T06:15:38;100562.16;;;25.84;42.84
17072;BME280;7731;50.720;6.912;2022-07-04T06:18:09;100560.44;;;25.26;42.69
17072;BME280;7731;50.720;6.912;2022-07-04T06:20:39;100565.25;;;24.53;46.38
17072;BME280;7731;50.720;6.912;2022-07-04T06:23:10;100572.50;;;24.86;44.24
17072;BME280;7731;50.720;6.912;2022-07-04T06:25:43;100569.94;;;25.10;43.98
17072;BME280;7731;50.720;6.912;2022-07-04T06:28:13;100574.66;;;25.82;41.80
17072;BME280;7731;50.720;6.912;2022-07-04T06:31:04;100579.56;;;25.36;42.54
17072;BME280;7731;50.720;6.912;2022-07-04T06:33:36;100575.78;;;24.88;42.53
17072;BME280;7731;50.720;6.912;2022-07-04T06:36:26;100580.56;;;25.84;40.71
17072;BME280;7731;50.720;6.912;2022-07-04T06:38:54;100582.72;;;25.48;41.50
17072;BME280;7731;50.720;6.912;2022-07-04T06:41:27;100581.13;;;26.69;39.59
17072;BME280;7731;50.720;6.912;2022-07-04T06:43:57;100579.63;;;28.07;36.88
17072;BME280;7731;50.720;6.912;2022-07-04T06:46:28;100567.09;;;29.42;32.37
17072;BME280;7731;50.720;6.912;2022-07-04T06:48:58;100577.09;;;27.52;36.00
17072;BME280;7731;50.720;6.912;2022-07-04T06:51:52;100569.63;;;27.24;37.92
17072;BME280;7731;50.720;6.912;2022-07-04T06:54:23;100575.31;;;25.76;40.60
17072;BME280;7731;50.720;6.912;2022-07-04T06:56:56;100566.91;;;25.31;39.54
17072;BME280;7731;50.720;6.912;2022-07-04T06:59:46;100565.63;;;25.01;39.63
17072;BME280;7731;50.720;6.912;2022-07-04T07:02:17;100551.22;;;26.93;35.59
17072;BME280;7731;50.720;6.912;2022-07-04T07:04:47;100549.56;;;28.38;33.02
17072;BME280;7731;50.720;6.912;2022-07-04T07:07:17;100547.75;;;28.23;33.33
17072;BME280;7731;50.720;6.912;2022-07-04T07:09:48;100539.34;;;27.20;34.69
17072;BME280;7731;50.720;6.912;2022-07-04T07:12:21;100548.31;;;27.80;34.76
17072;BME280;7731;50.720;6.912;2022-07-04T07:14:52;100550.16;;;26.07;37.27
17072;BME280;7731;50.720;6.912;2022-07-04T07:17:22;100544.47;;;28.51;32.58
17072;BME280;7731;50.720;6.912;2022-07-04T07:19:53;100544.97;;;26.38;35.37
17072;BME280;7731;50.720;6.912;2022-07-04T07:22:24;100526.59;;;29.04;30.84
17072;BME280;7731;50.720;6.912;2022-07-04T07:24:54;100538.03;;;26.93;33.81
17072;BME280;7731;50.720;6.912;2022-07-04T07:27:28;100538.91;;;26.29;36.05
17072;BME280;7731;50.720;6.912;2022-07-04T07:29:58;100539.41;;;27.82;33.61
17072;BME280;7731;50.720;6.912;2022-07-04T07:32:28;100522.59;;;29.30;30.90
17072;BME280;7731;50.720;6.912;2022-07-04T07:34:59;100523.72;;;29.43;27.83
17072;BME280;7731;50.720;6.912;2022-07-04T07:37:29;100513.94;;;29.93;28.69
17072;BME280;7731;50.720;6.912;2022-07-04T07:40:01;100523.97;;;29.48;28.29
17072;BME280;7731;50.720;6.912;2022-07-04T07:42:34;100521.44;;;29.39;28.34
17072;BME280;7731;50.720;6.912;2022-07-04T07:45:07;100531.97;;;28.75;29.47
17072;BME280;7731;50.720;6.912;2022-07-04T07:47:37;100527.28;;;29.78;27.34
17072;BME280;7731;50.720;6.912;2022-07-04T07:50:08;100528.25;;;28.24;29.52
17072;BME280;7731;50.720;6.912;2022-07-04T07:52:38;100545.84;;;26.14;32.67
17072;BME280;7731;50.720;6.912;2022-07-04T07:55:09;100540.94;;;27.06;30.58
17072;BME280;7731;50.720;6.912;2022-07-04T07:57:42;100544.53;;;27.37;30.96
17072;BME280;7731;50.720;6.912;2022-07-04T08:00:16;100547.88;;;27.54;32.14
17072;BME280;7731;50.720;6.912;2022-07-04T08:03:06;100545.47;;;28.50;27.92
17072;BME280;7731;50.720;6.912;2022-07-04T08:05:49;100549.22;;;28.41;29.78
17072;BME280;7731;50.720;6.912;2022-07-04T08:08:28;100555.06;;;29.02;27.13
17072;BME280;7731;50.720;6.912;2022-07-04T08:10:58;100561.38;;;26.65;31.41
17072;BME280;7731;50.720;6.912;2022-07-04T08:13:32;100546.78;;;29.99;27.92
17072;BME280;7731;50.720;6.912;2022-07-04T08:16:03;100545.13;;;27.85;28.86
17072;BME280;7731;50.720;6.912;2022-07-04T08:18:34;100539.84;;;29.04;27.23
17072;BME280;7731;50.720;6.912;2022-07-04T08:21:05;100547.09;;;28.81;28.44
17072;BME280;7731;50.720;6.912;2022-07-04T08:23:39;100548.38;;;27.95;29.12
17072;BME280;7731;50.720;6.912;2022-07-04T08:26:30;100537.91;;;28.77;28.50
17072;BME280;7731;50.720;6.912;2022-07-04T08:29:03;100547.38;;;28.41;28.68
17072;BME280;7731;50.720;6.912;2022-07-04T08:31:33;100542.97;;;26.48;31.07
17072;BME280;7731;50.720;6.912;2022-07-04T08:34:18;100530.09;;;29.98;27.36
17072;BME280;7731;50.720;6.912;2022-07-04T08:36:48;100533.41;;;30.97;24.07
17072;BME280;7731;50.720;6.912;2022-07-04T08:39:19;100539.75;;;32.82;21.08
17072;BME280;7731;50.720;6.912;2022-07-04T08:41:52;100547.25;;;30.92;22.27
17072;BME280;7731;50.720;6.912;2022-07-04T08:44:28;100560.75;;;27.72;27.12
17072;BME280;7731;50.720;6.912;2022-07-04T08:46:59;100560.28;;;27.22;27.95
17072;BME280;7731;50.720;6.912;2022-07-04T08:49:30;100557.84;;;27.43;28.20
17072;BME280;7731;50.720;6.912;2022-07-04T08:52:05;100551.94;;;28.62;26.88
17072;BME280;7731;50.720;6.912;2022-07-04T08:54:39;100547.53;;;29.43;25.15
17072;BME280;7731;50.720;6.912;2022-07-04T08:57:22;100557.13;;;29.22;25.43
17072;BME280;7731;50.720;6.912;2022-07-04T09:00:09;100543.28;;;31.97;21.74
17072;BME280;7731;50.720;6.912;2022-07-04T09:02:39;100542.44;;;31.09;23.21
17072;BME280;7731;50.720;6.912;2022-07-04T09:05:10;100546.13;;;31.15;22.93
17072;BME280;7731;50.720;6.912;2022-07-04T09:07:40;100552.72;;;26.87;28.05
17072;BME280;7731;50.720;6.912;2022-07-04T09:10:11;100560.13;;;28.38;26.81
17072;BME280;7731;50.720;6.912;2022-07-04T09:12:41;100549.31;;;29.35;25.99
17072;BME280;7731;50.720;6.912;2022-07-04T09:15:35;100543.94;;;27.26;28.56
17072;BME280;7731;50.720;6.912;2022-07-04T09:18:05;100539.00;;;30.60;25.20
17072;BME280;7731;50.720;6.912;2022-07-04T09:20:35;100536.94;;;29.86;26.21
17072;BME280;7731;50.720;6.912;2022-07-04T09:23:18;100532.59;;;32.23;22.48
17072;BME280;7731;50.720;6.912;2022-07-04T09:25:49;100539.13;;;29.17;26.42
17072;BME280;7731;50.720;6.912;2022-07-04T09:28:36;100540.09;;;29.53;26.64
17072;BME280;7731;50.720;6.912;2022-07-04T09:31:23;100537.72;;;28.04;28.21
17072;BME280;7731;50.720;6.912;2022-07-04T09:33:56;100534.31;;;31.84;22.10
17072;BME280;7731;50.720;6.912;2022-07-04T09:36:28;100540.44;;;28.85;26.69
17072;BME280;7731;50.720;6.912;2022-07-04T09:39:11;100539.91;;;28.45;26.68
17072;BME280;7731;50.720;6.912;2022-07-04T09:41:54;100541.66;;;28.38;27.21
17072;BME280;7731;50.720;6.912;2022-07-04T09:44:28;100537.34;;;28.37;26.83
17072;BME280;7731;50.720;6.912;2022-07-04T09:47:20;100520.88;;;30.77;24.49
17072;BME280;7731;50.720;6.912;2022-07-04T09:50:04;100524.97;;;28.52;27.19
17072;BME280;7731;50.720;6.912;2022-07-04T09:52:50;100529.78;;;28.33;27.64
17072;BME280;7731;50.720;6.912;2022-07-04T09:55:24;100523.66;;;28.78;27.31
17072;BME280;7731;50.720;6.912;2022-07-04T09:57:59;100506.56;;;31.67;23.76
17072;BME280;7731;50.720;6.912;2022-07-04T10:00:31;100514.00;;;30.00;25.62
17072;BME280;7731;50.720;6.912;2022-07-04T10:03:22;100526.75;;;29.61;24.96
17072;BME280;7731;50.720;6.912;2022-07-04T10:06:05;100519.25;;;29.93;24.70
17072;BME280;7731;50.720;6.912;2022-07-04T10:08:37;100514.84;;;28.56;26.17
17072;BME280;7731;50.720;6.912;2022-07-04T10:11:08;100506.19;;;28.47;26.75
17072;BME280;7731;50.720;6.912;2022-07-04T10:13:46;100506.78;;;30.22;25.29
17072;BME280;7731;50.720;6.912;2022-07-04T10:16:17;100504.38;;;29.42;24.39
17072;BME280;7731;50.720;6.912;2022-07-04T10:18:53;100499.47;;;30.79;24.25
17072;BME280;7731;50.720;6.912;2022-07-04T10:21:24;100508.59;;;29.36;24.62
17072;BME280;7731;50.720;6.912;2022-07-04T10:23:54;100507.22;;;29.41;25.04
17072;BME280;7731;50.720;6.912;2022-07-04T10:26:27;100505.44;;;27.93;26.93
17072;BME280;7731;50.720;6.912;2022-07-04T10:28:58;100504.16;;;28.79;25.20
17072;BME280;7731;50.720;6.912;2022-07-04T10:31:30;100501.88;;;29.84;25.15
17072;BME280;7731;50.720;6.912;2022-07-04T10:34:04;100488.19;;;29.52;24.65
17072;BME280;7731;50.720;6.912;2022-07-04T10:36:35;100498.28;;;29.42;25.37
17072;BME280;7731;50.720;6.912;2022-07-04T10:39:05;100488.06;;;28.95;25.61
17072;BME280;7731;50.720;6.912;2022-07-04T10:41:56;100497.84;;;27.99;26.88
17072;BME280;7731;50.720;6.912;2022-07-04T10:44:27;100482.25;;;29.07;27.17
17072;BME280;7731;50.720;6.912;2022-07-04T10:47:05;100482.25;;;29.50;26.42
17072;BME280;7731;50.720;6.912;2022-07-04T10:49:39;100484.78;;;29.86;25.63
17072;BME280;7731;50.720;6.912;2022-07-04T10:52:13;100466.03;;;30.85;24.17
17072;BME280;7731;50.720;6.912;2022-07-04T10:54:45;100474.88;;;30.43;24.67
17072;BME280;7731;50.720;6.912;2022-07-04T10:57:17;100476.28;;;31.68;23.81
17072;BME280;7731;50.720;6.912;2022-07-04T11:00:06;100483.72;;;28.06;27.70
17072;BME280;7731;50.720;6.912;2022-07-04T11:02:37;100475.69;;;29.02;27.20
17072;BME280;7731;50.720;6.912;2022-07-04T11:05:12;100485.34;;;29.53;25.96
17072;BME280;7731;50.720;6.912;2022-07-04T11:08:08;100485.88;;;28.47;26.75
17072;BME280;7731;50.720;6.912;2022-07-04T11:10:38;100478.72;;;28.99;27.54
17072;BME280;7731;50.720;6.912;2022-07-04T11:13:18;100493.63;;;27.89;29.00
17072;BME280;7731;50.720;6.912;2022-07-04T11:16:03;100494.38;;;27.60;29.14
17072;BME280;7731;50.720;6.912;2022-07-04T11:18:43;100499.66;;;27.37;28.39
17072;BME280;7731;50.720;6.912;2022-07-04T11:21:22;100502.13;;;27.38;29.20
17072;BME280;7731;50.720;6.912;2022-07-04T11:23:54;100492.75;;;26.89;29.18
17072;BME280;7731;50.720;6.912;2022-07-04T11:26:25;100491.81;;;26.26;30.13
17072;BME280;7731;50.720;6.912;2022-07-04T11:28:56;100486.81;;;26.08;31.75
17072;BME280;7731;50.720;6.912;2022-07-04T11:31:37;100500.69;;;26.81;31.01
17072;BME280;7731;50.720;6.912;2022-07-04T11:34:08;100496.50;;;26.55;31.06
17072;BME280;7731;50.720;6.912;2022-07-04T11:37:02;100486.31;;;26.52;31.35
17072;BME280;7731;50.720;6.912;2022-07-04T11:39:33;100491.78;;;25.29;32.77
17072;BME280;7731;50.720;6.912;2022-07-04T11:42:04;100482.22;;;27.27;29.86
17072;BME280;7731;50.720;6.912;2022-07-04T11:44:47;100490.00;;;26.35;31.45
17072;BME280;7731;50.720;6.912;2022-07-04T11:47:35;100487.50;;;27.27;30.48
17072;BME280;7731;50.720;6.912;2022-07-04T11:50:09;100477.97;;;27.03;31.76
17072;BME280;7731;50.720;6.912;2022-07-04T11:52:45;100475.84;;;28.43;29.33
17072;BME280;7731;50.720;6.912;2022-07-04T11:55:38;100483.25;;;26.80;31.30
17072;BME280;7731;50.720;6.912;2022-07-04T11:58:08;100478.78;;;27.04;30.72
17072;BME280;7731;50.720;6.912;2022-07-04T12:00:40;100475.59;;;27.55;29.44
17072;BME280;7731;50.720;6.912;2022-07-04T12:03:11;100475.63;;;28.08;28.44
17072;BME280;7731;50.720;6.912;2022-07-04T12:05:41;100469.66;;;27.38;29.14
17072;BME280;7731;50.720;6.912;2022-07-04T12:08:16;100473.03;;;28.00;28.73
17072;BME280;7731;50.720;6.912;2022-07-04T12:10:52;100465.25;;;27.68;28.41
17072;BME280;7731;50.720;6.912;2022-07-04T12:13:22;100474.22;;;27.44;29.36
17072;BME280;7731;50.720;6.912;2022-07-04T12:15:53;100479.84;;;27.41;29.25
17072;BME280;7731;50.720;6.912;2022-07-04T12:18:26;100477.97;;;27.26;29.65
17072;BME280;7731;50.720;6.912;2022-07-04T12:21:12;100474.19;;;26.75;30.27
17072;BME280;7731;50.720;6.912;2022-07-04T12:23:54;100471.66;;;27.13;30.71
17072;BME280;7731;50.720;6.912;2022-07-04T12:26:32;100467.03;;;27.38;28.97
17072;BME280;7731;50.720;6.912;2022-07-04T12:29:03;100466.13;;;26.76;30.59
17072;BME280;7731;50.720;6.912;2022-07-04T12:31:40;100463.72;;;26.89;30.67
17072;BME280;7731;50.720;6.912;2022-07-04T12:34:15;100462.53;;;27.76;29.17
17072;BME280;7731;50.720;6.912;2022-07-04T12:36:49;100457.53;;;27.67;28.79
17072;BME280;7731;50.720;6.912;2022-07-04T12:39:34;100458.44;;;27.74;29.84
17072;BME280;7731;50.720;6.912;2022-07-04T12:42:11;100452.19;;;26.59;30.29
17072;BME280;7731;50.720;6.912;2022-07-04T12:44:43;100446.78;;;26.84;29.83
17072;BME280;7731;50.720;6.912;2022-07-04T12:47:17;100446.47;;;26.47;32.69
17072;BME280;7731;50.720;6.912;2022-07-04T12:50:07;100449.50;;;26.36;31.08
17072;BME280;7731;50.720;6.912;2022-07-04T12:52:40;100443.69;;;25.93;31.55
17072;BME280;7731;50.720;6.912;2022-07-04T12:55:14;100453.78;;;25.73;32.33
17072;BME280;7731;50.720;6.912;2022-07-04T12:57:45;100450.13;;;25.74;31.74
17072;BME280;7731;50.720;6.912;2022-07-04T13:00:15;100444.50;;;25.93;32.34
17072;BME280;7731;50.720;6.912;2022-07-04T13:03:02;100434.50;;;26.76;30.75
17072;BME280;7731;50.720;6.912;2022-07-04T13:05:34;100437.75;;;27.01;30.62
17072;BME280;7731;50.720;6.912;2022-07-04T13:08:06;100447.06;;;27.12;30.92
17072;BME280;7731;50.720;6.912;2022-07-04T13:10:39;100434.09;;;28.02;28.99
17072;BME280;7731;50.720;6.912;2022-07-04T13:13:09;100439.66;;;27.16;29.73
17072;BME280;7731;50.720;6.912;2022-07-04T13:15:40;100446.53;;;27.17;30.51
17072;BME280;7731;50.720;6.912;2022-07-04T13:18:10;100440.47;;;26.93;30.95
17072;BME280;7731;50.720;6.912;2022-07-04T13:20:40;100433.53;;;27.15;30.35
17072;BME280;7731;50.720;6.912;2022-07-04T13:23:11;100426.72;;;27.44;31.34
17072;BME280;7731;50.720;6.912;2022-07-04T13:25:49;100440.03;;;26.50;31.76
17072;BME280;7731;50.720;6.912;2022-07-04T13:28:19;100430.66;;;26.47;32.24
17072;BME280;7731;50.720;6.912;2022-07-04T13:30:50;100430.47;;;26.57;31.35
17072;BME280;7731;50.720;6.912;2022-07-04T13:33:21;100427.00;;;26.25;31.98